Time;durP1;ratioP1;P1;durP2;ratioP2;P2;SDS_P1;SDS_P2;PMS_P1;PMS_P2;Temp;Humidity;BMP_temperature;BMP_pressure;BME280_temperature;BME280_humidity;BME280_pressure;Samples;Min_cycle;Max_cycle;Signal;HPM_P1;HPM_P2
2022/11/17 00:01:22;;;;;;;;;;;;;;;;;;5108436;28;19915;-58
2022/11/17 00:03:48;;;;;;;;;;;;;;;;;;5108392;28;19916;-59
2022/11/17 00:06:13;;;;;;;;;;;;;;;;;;5108230;28;19980;-59
2022/11/17 00:08:38;;;;;;;;;;;;;;;;;;5110003;28;19916;-58
2022/11/17 00:11:04;;;;;;;;;;;;;;;;;;5109023;27;20282;-58
2022/11/17 00:16:17;;;;;;;;;;;;;;;;;;5109165;28;19974;-59
2022/11/17 00:21:27;;;;;;;;;;;;;;;;;;5108499;28;19973;-58
2022/11/17 00:23:53;;;;;;;;;;;;;;;;;;5106893;28;20344;-58
2022/11/17 00:26:20;;;;;;;;;;;;;;;;;;5109826;28;19915;-58
2022/11/17 00:28:45;;;;;;;;;;;;;;;;;;5110776;27;20347;-58
2022/11/17 00:34:03;;;;;;;;;;;;;;;;;;5109629;28;20027;-58
2022/11/17 00:36:29;;;;;;;;;;;;;;;;;;5103865;28;20004;-57
2022/11/17 00:38:54;;;;;;;;;;;;;;;;;;5106670;28;20008;-59
2022/11/17 00:41:19;;;;;;;;;;;;;;;;;;5107907;28;19999;-58
2022/11/17 00:43:44;;;;;;;;;;;;;;;;;;5108604;28;19927;-59
2022/11/17 00:46:10;;;;;;;;;;;;;;;;;;5108368;28;20445;-58
2022/11/17 00:48:35;;;;;;;;;;;;;;;;;;5109808;27;19958;-58
2022/11/17 00:51:03;;;;;;;;;;;;;;;;;;5108644;27;20377;-58
2022/11/17 00:53:29;;;;;;;;;;;;;;;;;;5112839;27;19922;-59
2022/11/17 00:55:54;;;;;;;;;;;;;;;;;;5102279;28;19919;-58
2022/11/17 00:58:19;;;;;;;;;;;;;;;;;;5109264;28;19969;-59
2022/11/17 01:00:47;;;;;;;;;;;;;;;;;;5108417;28;20389;-58
2022/11/17 01:03:12;;;;;;;;;;;;;;;;;;5106306;28;19922;-58
2022/11/17 01:05:37;;;;;;;;;;;;;;;;;;5109075;27;20022;-58
2022/11/17 01:08:02;;;;;;;;;;;;;;;;;;5108497;28;19926;-59
2022/11/17 01:10:28;;;;;;;;;;;;;;;;;;5107456;27;19916;-58
2022/11/17 01:12:53;;;;;;;;;;;;;;;;;;5106163;28;20389;-58
2022/11/17 01:15:18;;;;;;;;;;;;;;;;;;5106697;28;19920;-58
2022/11/17 01:17:43;;;;;;;;;;;;;;;;;;5107605;28;19916;-58
2022/11/17 01:20:09;;;;;;;;;;;;;;;;;;5108022;28;19926;-58
2022/11/17 01:22:34;;;;;;;;;;;;;;;;;;5107324;28;19916;-58
2022/11/17 01:24:59;;;;;;;;;;;;;;;;;;5108630;28;19919;-58
2022/11/17 01:27:25;;;;;;;;;;;;;;;;;;5108936;28;19920;-58
2022/11/17 01:29:50;;;;;;;;;;;;;;;;;;5109023;28;19923;-58
2022/11/17 01:32:15;;;;;;;;;;;;;;;;;;5105194;28;20384;-58
2022/11/17 01:34:40;;;;;;;;;;;;;;;;;;5106473;28;19971;-58
2022/11/17 01:37:18;;;;;;;;;;;;;;;;;;5107831;28;19964;-58
2022/11/17 01:39:43;;;;;;;;;;;;;;;;;;5104249;28;19976;-58
2022/11/17 01:42:15;;;;;;;;;;;;;;;;;;5107752;28;19924;-58
2022/11/17 01:44:40;;;;;;;;;;;;;;;;;;5108230;28;19915;-58
2022/11/17 01:47:13;;;;;;;;;;;;;;;;;;5107360;28;19968;-58
2022/11/17 01:49:38;;;;;;;;;;;;;;;;;;5107220;28;19958;-59
2022/11/17 01:52:06;;;;;;;;;;;;;;;;;;5101838;28;19955;-59
2022/11/17 01:54:32;;;;;;;;;;;;;;;;;;5108576;28;20297;-58
2022/11/17 01:57:01;;;;;;;;;;;;;;;;;;5108869;28;20334;-58
2022/11/17 01:59:30;;;;;;;;;;;;;;;;;;5108472;28;19920;-58
2022/11/17 02:01:56;;;;;;;;;;;;;;;;;;5106281;28;20015;-58
2022/11/17 02:04:32;;;;;;;;;;;;;;;;;;5106533;28;20036;-59
2022/11/17 02:07:13;;;;;;;;;;;;;;;;;;5106608;28;19998;-57
2022/11/17 02:09:39;;;;;;;;;;;;;;;;;;5107457;28;19967;-58
2022/11/17 02:12:05;;;;;;;;;;;;;;;;;;5105593;28;19920;-58
2022/11/17 02:14:30;;;;;;;;;;;;;;;;;;5108125;28;20320;-57
2022/11/17 02:16:55;;;;;;;;;;;;;;;;;;5107778;28;19919;-59
2022/11/17 02:19:22;;;;;;;;;;;;;;;;;;5106504;28;20286;-58
2022/11/17 02:21:50;;;;;;;;;;;;;;;;;;5107632;28;19916;-58
2022/11/17 02:24:21;;;;;;;;;;;;;;;;;;5113128;28;19919;-58
2022/11/17 02:27:17;;;;;;;;;;;;;;;;;;5110371;27;19928;-59
2022/11/17 02:29:49;;;;;;;;;;;;;;;;;;5107592;28;21339;-58
2022/11/17 02:32:28;;;;;;;;;;;;;;;;;;5117653;27;20006;-56
2022/11/17 02:34:53;;;;;;;;;;;;;;;;;;5110166;28;19976;-56
2022/11/17 02:37:52;;;;;;;;;;;;;;;;;;5109927;28;19919;-58
2022/11/17 02:40:21;;;;;;;;;;;;;;;;;;5108780;28;19955;-58
2022/11/17 02:45:50;;;;;;;;;;;;;;;;;;5110797;28;19922;-58
2022/11/17 02:48:18;;;;;;;;;;;;;;;;;;5108904;27;19919;-58
2022/11/17 02:50:45;;;;;;;;;;;;;;;;;;5111345;27;20335;-58
2022/11/17 02:53:11;;;;;;;;;;;;;;;;;;5109499;28;20591;-58
2022/11/17 02:55:36;;;;;;;;;;;;;;;;;;5113994;27;19920;-58
2022/11/17 02:58:02;;;;;;;;;;;;;;;;;;5111345;27;19920;-58
2022/11/17 03:00:27;;;;;;;;;;;;;;;;;;5110863;28;19965;-57
2022/11/17 03:02:52;;;;;;;;;;;;;;;;;;5109405;28;19915;-57
2022/11/17 03:05:25;;;;;;;;;;;;;;;;;;5113477;27;19994;-57
2022/11/17 03:08:02;;;;;;;;;;;;;;;;;;5108318;28;19920;-57
2022/11/17 03:10:48;;;;;;;;;;;;;;;;;;5111229;28;19951;-58
2022/11/17 03:13:32;;;;;;;;;;;;;;;;;;5102254;28;19926;-58
2022/11/17 03:16:16;;;;;;;;;;;;;;;;;;5109243;28;19920;-58
2022/11/17 03:18:48;;;;;;;;;;;;;;;;;;5108880;28;19955;-57
2022/11/17 03:21:13;;;;;;;;;;;;;;;;;;5111972;28;19924;-58
2022/11/17 03:23:43;;;;;;;;;;;;;;;;;;5111088;28;19930;-57
2022/11/17 03:26:10;;;;;;;;;;;;;;;;;;5106130;28;19916;-58
2022/11/17 03:28:36;;;;;;;;;;;;;;;;;;5109969;28;19923;-60
2022/11/17 03:31:03;;;;;;;;;;;;;;;;;;5114394;27;19922;-59
2022/11/17 03:33:29;;;;;;;;;;;;;;;;;;5109032;28;20410;-58
2022/11/17 03:36:00;;;;;;;;;;;;;;;;;;5109951;28;19927;-59
2022/11/17 03:38:28;;;;;;;;;;;;;;;;;;5109816;27;19920;-59
2022/11/17 03:40:54;;;;;;;;;;;;;;;;;;5109316;28;19916;-58
2022/11/17 03:43:20;;;;;;;;;;;;;;;;;;5110279;28;20404;-59
2022/11/17 03:45:48;;;;;;;;;;;;;;;;;;5109898;28;19919;-60
2022/11/17 03:48:25;;;;;;;;;;;;;;;;;;5109153;28;19919;-60
2022/11/17 03:51:09;;;;;;;;;;;;;;;;;;5110139;27;19922;-60
2022/11/17 03:53:35;;;;;;;;;;;;;;;;;;5109350;28;20045;-60
2022/11/17 03:56:06;;;;;;;;;;;;;;;;;;5109599;28;20409;-60
2022/11/17 03:58:33;;;;;;;;;;;;;;;;;;5109411;28;20277;-60
2022/11/17 04:01:00;;;;;;;;;;;;;;;;;;5106326;28;20405;-61
2022/11/17 04:03:30;;;;;;;;;;;;;;;;;;5106328;28;19920;-59
2022/11/17 04:05:55;;;;;;;;;;;;;;;;;;5109955;28;19959;-60
2022/11/17 04:08:22;;;;;;;;;;;;;;;;;;5109142;28;19958;-59
2022/11/17 04:16:15;;;;;;;;;;;;;;;;;;5109204;28;19959;-60
2022/11/17 04:18:41;;;;;;;;;;;;;;;;;;5109732;27;19915;-61
2022/11/17 04:21:06;;;;;;;;;;;;;;;;;;5108973;28;19922;-59
2022/11/17 04:23:31;;;;;;;;;;;;;;;;;;5109251;28;19924;-59
2022/11/17 04:28:43;;;;;;;;;;;;;;;;;;5107817;27;19922;-59
2022/11/17 04:31:11;;;;;;;;;;;;;;;;;;5109133;28;19916;-59
2022/11/17 04:33:37;;;;;;;;;;;;;;;;;;5106302;28;19984;-59
2022/11/17 04:36:03;;;;;;;;;;;;;;;;;;5108134;28;19920;-59
2022/11/17 04:38:29;;;;;;;;;;;;;;;;;;5109008;28;19920;-59
2022/11/17 04:43:43;;;;;;;;;;;;;;;;;;5109331;28;20022;-59
2022/11/17 04:46:08;;;;;;;;;;;;;;;;;;5108534;27;19920;-58
2022/11/17 04:48:34;;;;;;;;;;;;;;;;;;5108088;28;19923;-59
2022/11/17 04:50:59;;;;;;;;;;;;;;;;;;5109129;28;19959;-58
2022/11/17 04:53:24;;;;;;;;;;;;;;;;;;5108476;27;20320;-58
2022/11/17 04:55:49;;;;;;;;;;;;;;;;;;5109895;28;19926;-58
2022/11/17 04:58:15;;;;;;;;;;;;;;;;;;5109451;27;20044;-59
2022/11/17 05:00:40;;;;;;;;;;;;;;;;;;5108140;28;19919;-59
2022/11/17 05:03:08;;;;;;;;;;;;;;;;;;5108399;28;19912;-59
2022/11/17 05:05:33;;;;;;;;;;;;;;;;;;5106449;27;20440;-59
2022/11/17 05:07:59;;;;;;;;;;;;;;;;;;5108128;28;19935;-59
2022/11/17 05:13:21;;;;;;;;;;;;;;;;;;5106815;28;19965;-59
2022/11/17 05:18:31;;;;;;;;;;;;;;;;;;5107400;27;19939;-58
2022/11/17 05:21:03;;;;;;;;;;;;;;;;;;5109973;28;20373;-58
2022/11/17 05:26:12;;;;;;;;;;;;;;;;;;5108522;28;19923;-62
2022/11/17 05:28:38;;;;;;;;;;;;;;;;;;5107811;28;20293;-61
2022/11/17 05:31:03;;;;;;;;;;;;;;;;;;5114083;27;19916;-61
2022/11/17 05:33:28;;;;;;;;;;;;;;;;;;5108987;28;19922;-61
2022/11/17 05:35:53;;;;;;;;;;;;;;;;;;5106882;28;20494;-61
2022/11/17 05:38:19;;;;;;;;;;;;;;;;;;5108621;28;19916;-61
2022/11/17 05:40:44;;;;;;;;;;;;;;;;;;5108090;28;20438;-61
2022/11/17 05:43:09;;;;;;;;;;;;;;;;;;5107769;28;19923;-62
2022/11/17 05:45:34;;;;;;;;;;;;;;;;;;5107717;28;19920;-61
2022/11/17 05:48:00;;;;;;;;;;;;;;;;;;5105421;28;19919;-62
2022/11/17 05:50:25;;;;;;;;;;;;;;;;;;5107481;28;19920;-62
2022/11/17 05:52:50;;;;;;;;;;;;;;;;;;5109674;28;20419;-65
2022/11/17 05:55:15;;;;;;;;;;;;;;;;;;5110629;28;20014;-62
2022/11/17 05:57:41;;;;;;;;;;;;;;;;;;5110830;27;19916;-61
2022/11/17 06:00:07;;;;;;;;;;;;;;;;;;5110963;28;19930;-61
2022/11/17 06:02:38;;;;;;;;;;;;;;;;;;5114556;27;19915;-60
2022/11/17 06:05:04;;;;;;;;;;;;;;;;;;5109499;28;19916;-59
2022/11/17 06:07:29;;;;;;;;;;;;;;;;;;5115173;27;19922;-61
2022/11/17 06:09:55;;;;;;;;;;;;;;;;;;5110661;28;19916;-61
2022/11/17 06:12:20;;;;;;;;;;;;;;;;;;5111835;28;20441;-61
2022/11/17 06:14:45;;;;;;;;;;;;;;;;;;5112581;28;19923;-60
2022/11/17 06:17:15;;;;;;;;;;;;;;;;;;5111446;28;19924;-60
2022/11/17 06:19:42;;;;;;;;;;;;;;;;;;5093445;28;19922;-61
2022/11/17 06:22:08;;;;;;;;;;;;;;;;;;5107315;28;20414;-60
2022/11/17 06:24:33;;;;;;;;;;;;;;;;;;5104561;28;20006;-61
2022/11/17 06:26:59;;;;;;;;;;;;;;;;;;5109519;28;20373;-61
2022/11/17 06:29:25;;;;;;;;;;;;;;;;;;5107601;28;19922;-61
2022/11/17 06:31:50;;;;;;;;;;;;;;;;;;5099065;28;20316;-60
2022/11/17 06:34:15;;;;;;;;;;;;;;;;;;5107436;28;19972;-60
2022/11/17 06:36:41;;;;;;;;;;;;;;;;;;5139541;27;20410;-60
2022/11/17 06:39:06;;;;;;;;;;;;;;;;;;5108949;28;19928;-60
2022/11/17 06:41:31;;;;;;;;;;;;;;;;;;5107667;28;20340;-60
2022/11/17 06:43:57;;;;;;;;;;;;;;;;;;5108648;28;19916;-60
2022/11/17 06:46:22;;;;;;;;;;;;;;;;;;5107098;28;20395;-60
2022/11/17 06:48:47;;;;;;;;;;;;;;;;;;5102668;28;19916;-60
2022/11/17 06:51:13;;;;;;;;;;;;;;;;;;5101675;28;19916;-60
2022/11/17 06:53:38;;;;;;;;;;;;;;;;;;5106725;28;19916;-60
2022/11/17 06:56:07;;;;;;;;;;;;;;;;;;5110519;28;19945;-60
2022/11/17 06:58:33;;;;;;;;;;;;;;;;;;5108416;28;19916;-60
2022/11/17 07:01:02;;;;;;;;;;;;;;;;;;5107679;28;19915;-60
2022/11/17 07:03:28;;;;;;;;;;;;;;;;;;5102219;28;19923;-59
2022/11/17 07:05:53;;;;;;;;;;;;;;;;;;5111176;27;20262;-59
2022/11/17 07:08:21;;;;;;;;;;;;;;;;;;5110635;28;19977;-60
2022/11/17 07:10:53;;;;;;;;;;;;;;;;;;5110055;28;19927;-59
2022/11/17 07:13:19;;;;;;;;;;;;;;;;;;5098081;27;20448;-59
2022/11/17 07:15:44;;;;;;;;;;;;;;;;;;5110115;28;19920;-60
2022/11/17 07:18:09;;;;;;;;;;;;;;;;;;5109751;28;20342;-60
2022/11/17 07:20:34;;;;;;;;;;;;;;;;;;5108230;28;19920;-60
2022/11/17 07:23:00;;;;;;;;;;;;;;;;;;5108768;28;19928;-60
2022/11/17 07:25:25;;;;;;;;;;;;;;;;;;5110576;28;19927;-60
2022/11/17 07:27:56;;;;;;;;;;;;;;;;;;5108626;28;19916;-60
2022/11/17 07:30:21;;;;;;;;;;;;;;;;;;5111119;28;19923;-60
2022/11/17 07:32:46;;;;;;;;;;;;;;;;;;5106613;28;19919;-60
2022/11/17 07:35:11;;;;;;;;;;;;;;;;;;5110325;28;20284;-60
2022/11/17 07:37:37;;;;;;;;;;;;;;;;;;5109755;28;19920;-60
2022/11/17 07:40:02;;;;;;;;;;;;;;;;;;5109884;28;19919;-60
2022/11/17 07:42:27;;;;;;;;;;;;;;;;;;5109133;27;19915;-60
2022/11/17 07:44:53;;;;;;;;;;;;;;;;;;5109059;28;19916;-60
2022/11/17 07:47:18;;;;;;;;;;;;;;;;;;5110072;28;19919;-61
2022/11/17 07:49:43;;;;;;;;;;;;;;;;;;5109268;28;19916;-60
2022/11/17 07:52:09;;;;;;;;;;;;;;;;;;5108371;28;19923;-60
2022/11/17 07:54:34;;;;;;;;;;;;;;;;;;5106325;28;20023;-61
2022/11/17 07:56:59;;;;;;;;;;;;;;;;;;5109750;27;19916;-62
2022/11/17 07:59:24;;;;;;;;;;;;;;;;;;5109089;28;19916;-62
2022/11/17 08:01:50;;;;;;;;;;;;;;;;;;5109038;28;20054;-62
2022/11/17 08:04:15;;;;;;;;;;;;;;;;;;5110154;27;19919;-62
2022/11/17 08:06:40;;;;;;;;;;;;;;;;;;5107899;28;20317;-61
2022/11/17 08:09:09;;;;;;;;;;;;;;;;;;5107976;28;19919;-61
2022/11/17 08:11:34;;;;;;;;;;;;;;;;;;5107615;28;19915;-61
2022/11/17 08:14:00;;;;;;;;;;;;;;;;;;5107770;28;19923;-61
2022/11/17 08:16:29;;;;;;;;;;;;;;;;;;5107523;28;19946;-61
2022/11/17 08:18:55;;;;;;;;;;;;;;;;;;5107859;28;20320;-61
2022/11/17 08:21:20;;;;;;;;;;;;;;;;;;5110494;27;19926;-61
2022/11/17 08:23:48;;;;;;;;;;;;;;;;;;5109254;28;19967;-62
2022/11/17 08:26:13;;;;;;;;;;;;;;;;;;5108498;28;19941;-62
2022/11/17 08:28:39;;;;;;;;;;;;;;;;;;5110075;28;19912;-62
2022/11/17 08:31:04;;;;;;;;;;;;;;;;;;5107391;28;20373;-63
2022/11/17 08:33:30;;;;;;;;;;;;;;;;;;5107561;28;19912;-63
2022/11/17 08:35:56;;;;;;;;;;;;;;;;;;5109231;28;19920;-62
2022/11/17 08:38:23;;;;;;;;;;;;;;;;;;5108495;28;19926;-62
2022/11/17 08:40:49;;;;;;;;;;;;;;;;;;5108495;28;19961;-60
2022/11/17 08:43:14;;;;;;;;;;;;;;;;;;5106226;28;19915;-62
2022/11/17 08:45:40;;;;;;;;;;;;;;;;;;5108378;28;19912;-62
2022/11/17 08:48:06;;;;;;;;;;;;;;;;;;5108712;28;19976;-62
2022/11/17 08:50:31;;;;;;;;;;;;;;;;;;5109779;28;20334;-62
2022/11/17 08:55:26;;;;;;;;;;;;;;;;;;5023274;28;19939;-77
2022/11/17 08:57:53;;;;;;;;;;;;;;;;;;5035406;28;19917;-77
2022/11/17 09:00:20;;;;;;;;;;;;;;;;;;5028931;28;19925;-77
2022/11/17 09:02:45;;;;;;;;;;;;;;;;;;5031898;28;19917;-78
2022/11/17 09:05:11;;;;;;;;;;;;;;;;;;5051650;28;19917;-77
2022/11/17 09:07:39;;;;;;;;;;;;;;;;;;5030455;28;19917;-76
2022/11/17 09:10:04;;;;;;;;;;;;;;;;;;5028887;28;19944;-75
2022/11/17 09:12:30;;;;;;;;;;;;;;;;;;5029920;28;19917;-76
2022/11/17 09:14:55;;;;;;;;;;;;;;;;;;5030262;28;20280;-76
2022/11/17 09:17:20;;;;;;;;;;;;;;;;;;5024465;28;19996;-76
2022/11/17 09:19:46;;;;;;;;;;;;;;;;;;5027597;28;19985;-76
2022/11/17 09:22:11;;;;;;;;;;;;;;;;;;5027971;28;20407;-76
2022/11/17 09:24:36;;;;;;;;;;;;;;;;;;5028686;28;20332;-76
2022/11/17 09:27:02;;;;;;;;;;;;;;;;;;5029831;28;19917;-76
2022/11/17 09:29:28;;;;;;;;;;;;;;;;;;5031251;28;19917;-76
2022/11/17 09:31:56;;;;;;;;;;;;;;;;;;5023724;28;21389;-76
2022/11/17 09:34:24;;;;;;;;;;;;;;;;;;5037971;28;19925;-75
2022/11/17 09:36:49;;;;;;;;;;;;;;;;;;5036568;28;19925;-76
2022/11/17 09:39:15;;;;;;;;;;;;;;;;;;5030183;28;20422;-76
2022/11/17 09:41:41;;;;;;;;;;;;;;;;;;5029188;28;19925;-76
2022/11/17 09:44:16;;;;;;;;;;;;;;;;;;5024273;28;19927;-77
2022/11/17 09:46:48;;;;;;;;;;;;;;;;;;5023171;28;19967;-77
2022/11/17 09:49:19;;;;;;;;;;;;;;;;;;5030433;28;19918;-77
2022/11/17 09:51:46;;;;;;;;;;;;;;;;;;5029023;28;19917;-77
2022/11/17 09:54:20;;;;;;;;;;;;;;;;;;5027810;28;20386;-77
2022/11/17 09:56:46;;;;;;;;;;;;;;;;;;5029311;28;19932;-77
2022/11/17 09:59:14;;;;;;;;;;;;;;;;;;5025828;28;19921;-77
2022/11/17 10:01:39;;;;;;;;;;;;;;;;;;5027198;28;19928;-77
2022/11/17 10:04:10;;;;;;;;;;;;;;;;;;5030131;28;19916;-77
2022/11/17 10:06:36;;;;;;;;;;;;;;;;;;5025521;28;20355;-77
2022/11/17 10:09:19;;;;;;;;;;;;;;;;;;5031162;28;19925;-77
2022/11/17 10:11:45;;;;;;;;;;;;;;;;;;5052016;28;19931;-77
2022/11/17 10:14:15;;;;;;;;;;;;;;;;;;5024823;28;19917;-76
2022/11/17 10:16:48;;;;;;;;;;;;;;;;;;5028159;28;19924;-76
2022/11/17 10:19:16;;;;;;;;;;;;;;;;;;5029102;28;19935;-77
2022/11/17 10:21:42;;;;;;;;;;;;;;;;;;5029618;28;19951;-77
2022/11/17 10:24:07;;;;;;;;;;;;;;;;;;5029779;28;19962;-77
2022/11/17 10:26:46;;;;;;;;;;;;;;;;;;5029082;28;19921;-77
2022/11/17 10:29:13;;;;;;;;;;;;;;;;;;5031329;28;20369;-77
2022/11/17 10:31:44;;;;;;;;;;;;;;;;;;5030642;28;19917;-77
2022/11/17 10:34:28;;;;;;;;;;;;;;;;;;5027176;28;19925;-77
2022/11/17 10:37:00;;;;;;;;;;;;;;;;;;5027156;28;19925;-77
2022/11/17 10:39:33;;;;;;;;;;;;;;;;;;5027325;28;19927;-78
2022/11/17 10:42:11;;;;;;;;;;;;;;;;;;5028371;28;19936;-77
2022/11/17 10:44:39;;;;;;;;;;;;;;;;;;5047250;28;20014;-78
2022/11/17 10:47:07;;;;;;;;;;;;;;;;;;5033872;28;20007;-78
2022/11/17 10:49:33;;;;;;;;;;;;;;;;;;5033652;28;19921;-77
2022/11/17 10:52:12;;;;;;;;;;;;;;;;;;5027972;28;20524;-77
2022/11/17 10:54:37;;;;;;;;;;;;;;;;;;5030055;28;19917;-77
2022/11/17 10:57:08;;;;;;;;;;;;;;;;;;5028178;28;19979;-78
2022/11/17 10:59:49;;;;;;;;;;;;;;;;;;5031509;28;19925;-77
2022/11/17 11:02:36;;;;;;;;;;;;;;;;;;5029765;28;20340;-76
2022/11/17 11:05:07;;;;;;;;;;;;;;;;;;5030187;28;19917;-77
2022/11/17 11:07:32;;;;;;;;;;;;;;;;;;5027439;28;20000;-77
2022/11/17 11:10:10;;;;;;;;;;;;;;;;;;5030527;28;20016;-78
2022/11/17 11:12:42;;;;;;;;;;;;;;;;;;5029439;28;20395;-77
2022/11/17 11:15:12;;;;;;;;;;;;;;;;;;5032542;28;20288;-77
2022/11/17 11:17:38;;;;;;;;;;;;;;;;;;5027514;28;19927;-77
2022/11/17 11:20:03;;;;;;;;;;;;;;;;;;5028140;28;19917;-76
2022/11/17 11:22:28;;;;;;;;;;;;;;;;;;5032596;28;19921;-77
2022/11/17 11:24:54;;;;;;;;;;;;;;;;;;5031209;28;19921;-77
2022/11/17 11:27:31;;;;;;;;;;;;;;;;;;5031330;28;19952;-77
2022/11/17 11:30:02;;;;;;;;;;;;;;;;;;5048050;28;20032;-78
2022/11/17 11:32:47;;;;;;;;;;;;;;;;;;5047976;28;19964;-77
2022/11/17 11:35:18;;;;;;;;;;;;;;;;;;5026156;28;19917;-76
2022/11/17 11:37:57;;;;;;;;;;;;;;;;;;5029677;28;19921;-77
2022/11/17 11:40:28;;;;;;;;;;;;;;;;;;5033202;28;19924;-77
2022/11/17 11:43:05;;;;;;;;;;;;;;;;;;5023710;28;19921;-78
2022/11/17 11:45:49;;;;;;;;;;;;;;;;;;5032107;28;19921;-77
2022/11/17 11:48:14;;;;;;;;;;;;;;;;;;5045776;28;20352;-75
2022/11/17 11:50:49;;;;;;;;;;;;;;;;;;5031278;28;19924;-77
2022/11/17 11:53:20;;;;;;;;;;;;;;;;;;5026645;28;20376;-77
2022/11/17 11:55:48;;;;;;;;;;;;;;;;;;5031408;28;19971;-76
2022/11/17 11:58:20;;;;;;;;;;;;;;;;;;5033669;28;19975;-76
2022/11/17 12:00:47;;;;;;;;;;;;;;;;;;5030477;28;20012;-76
2022/11/17 12:03:21;;;;;;;;;;;;;;;;;;5029566;28;19917;-74
2022/11/17 12:06:38;;;;;;;;;;;;;;;;;;5032285;28;19924;-77
2022/11/17 12:08:49;;;;;;;;;;;;;;;;;;5035996;28;19968;-74
2022/11/17 12:14:00;;;;;;;;;;;;;;;;;;5033644;28;19924;-78
2022/11/17 12:16:27;;;;;;;;;;;;;;;;;;5032791;28;19925;-78
2022/11/17 12:18:53;;;;;;;;;;;;;;;;;;5033404;28;19921;-77
2022/11/17 12:21:22;;;;;;;;;;;;;;;;;;5027306;28;20474;-78
2022/11/17 12:23:53;;;;;;;;;;;;;;;;;;5035714;28;20287;-78
2022/11/17 12:26:26;;;;;;;;;;;;;;;;;;5036675;28;20277;-77
2022/11/17 12:29:32;;;;;;;;;;;;;;;;;;5035796;28;19953;-78
2022/11/17 12:31:58;;;;;;;;;;;;;;;;;;5033590;28;19917;-77
2022/11/17 12:34:38;;;;;;;;;;;;;;;;;;5030231;28;19963;-78
2022/11/17 12:37:13;;;;;;;;;;;;;;;;;;5022911;28;20008;-77
2022/11/17 12:39:54;;;;;;;;;;;;;;;;;;5028977;28;19917;-76
2022/11/17 12:42:19;;;;;;;;;;;;;;;;;;5047839;28;19935;-77
2022/11/17 12:44:47;;;;;;;;;;;;;;;;;;5031227;28;19921;-77
2022/11/17 12:47:14;;;;;;;;;;;;;;;;;;5030477;28;19917;-79
2022/11/17 12:50:02;;;;;;;;;;;;;;;;;;5031402;28;19921;-77
2022/11/17 12:52:45;;;;;;;;;;;;;;;;;;5043595;28;19917;-77
2022/11/17 12:55:15;;;;;;;;;;;;;;;;;;5051407;28;19925;-77
2022/11/17 12:57:44;;;;;;;;;;;;;;;;;;5043703;28;20390;-77
2022/11/17 13:00:20;;;;;;;;;;;;;;;;;;5031781;28;19940;-76
2022/11/17 13:03:01;;;;;;;;;;;;;;;;;;5031333;28;19987;-77
2022/11/17 13:05:28;;;;;;;;;;;;;;;;;;5030735;28;19924;-78
2022/11/17 13:08:20;;;;;;;;;;;;;;;;;;5031234;28;19924;-77
2022/11/17 13:10:45;;;;;;;;;;;;;;;;;;5032716;28;20008;-77
2022/11/17 13:13:18;;;;;;;;;;;;;;;;;;5030966;28;20444;-77
2022/11/17 13:15:44;;;;;;;;;;;;;;;;;;5031398;28;19931;-77
2022/11/17 13:18:14;;;;;;;;;;;;;;;;;;5031701;28;20362;-77
2022/11/17 13:20:39;;;;;;;;;;;;;;;;;;5031912;28;20363;-77
2022/11/17 13:23:18;;;;;;;;;;;;;;;;;;5030960;28;19949;-77
2022/11/17 13:25:44;;;;;;;;;;;;;;;;;;5031917;28;19917;-77
2022/11/17 13:28:25;;;;;;;;;;;;;;;;;;5032435;28;19943;-77
2022/11/17 13:30:50;;;;;;;;;;;;;;;;;;5031383;28;20449;-77
2022/11/17 13:33:19;;;;;;;;;;;;;;;;;;5029809;28;19960;-77
2022/11/17 13:35:47;;;;;;;;;;;;;;;;;;5031726;28;20441;-76
2022/11/17 13:38:15;;;;;;;;;;;;;;;;;;5062429;28;19917;-77
2022/11/17 13:40:41;;;;;;;;;;;;;;;;;;5032198;28;19917;-77
2022/11/17 13:43:11;;;;;;;;;;;;;;;;;;5031456;28;19972;-77
2022/11/17 13:45:37;;;;;;;;;;;;;;;;;;5030740;28;20380;-77
2022/11/17 13:48:04;;;;;;;;;;;;;;;;;;5046118;28;19952;-77
2022/11/17 13:50:29;;;;;;;;;;;;;;;;;;5028020;28;19921;-77
2022/11/17 13:52:59;;;;;;;;;;;;;;;;;;5031580;28;19917;-77
2022/11/17 13:55:26;;;;;;;;;;;;;;;;;;5029691;28;19924;-77
2022/11/17 13:57:55;;;;;;;;;;;;;;;;;;5031668;28;19913;-77
2022/11/17 14:00:21;;;;;;;;;;;;;;;;;;5032289;28;20413;-77
2022/11/17 14:02:56;;;;;;;;;;;;;;;;;;5029489;28;19921;-77
2022/11/17 14:05:24;;;;;;;;;;;;;;;;;;5028201;28;20333;-76
2022/11/17 14:07:52;;;;;;;;;;;;;;;;;;5031777;28;19925;-77
2022/11/17 14:10:24;;;;;;;;;;;;;;;;;;5029083;28;19917;-78
2022/11/17 14:13:01;;;;;;;;;;;;;;;;;;5028826;28;20447;-76
2022/11/17 14:15:28;;;;;;;;;;;;;;;;;;5045794;28;19917;-76
2022/11/17 14:17:57;;;;;;;;;;;;;;;;;;5031964;28;19962;-76
2022/11/17 14:20:22;;;;;;;;;;;;;;;;;;5030780;28;19925;-76
2022/11/17 14:23:04;;;;;;;;;;;;;;;;;;5039403;28;19988;-76
2022/11/17 14:25:33;;;;;;;;;;;;;;;;;;5029587;28;20387;-77
2022/11/17 14:27:58;;;;;;;;;;;;;;;;;;5039869;28;19917;-77
2022/11/17 14:30:24;;;;;;;;;;;;;;;;;;5038759;28;19925;-77
2022/11/17 14:32:49;;;;;;;;;;;;;;;;;;5034791;28;19932;-76
2022/11/17 14:35:16;;;;;;;;;;;;;;;;;;5035844;28;19929;-76
2022/11/17 14:37:42;;;;;;;;;;;;;;;;;;5045784;28;19955;-73
2022/11/17 14:40:15;;;;;;;;;;;;;;;;;;5038005;28;19925;-76
2022/11/17 14:42:41;;;;;;;;;;;;;;;;;;5034151;28;19923;-77
2022/11/17 14:45:18;;;;;;;;;;;;;;;;;;5038129;28;19917;-76
2022/11/17 14:47:43;;;;;;;;;;;;;;;;;;5032859;28;19969;-74
2022/11/17 14:50:13;;;;;;;;;;;;;;;;;;5032903;28;19973;-75
2022/11/17 14:52:39;;;;;;;;;;;;;;;;;;5035193;28;20012;-76
2022/11/17 14:55:06;;;;;;;;;;;;;;;;;;5031250;28;19921;-77
2022/11/17 14:57:32;;;;;;;;;;;;;;;;;;5035153;28;19952;-76
2022/11/17 14:59:57;;;;;;;;;;;;;;;;;;5035290;28;19960;-77
2022/11/17 15:02:22;;;;;;;;;;;;;;;;;;5033741;28;20019;-76
2022/11/17 15:04:47;;;;;;;;;;;;;;;;;;5033933;28;19963;-77
2022/11/17 15:07:13;;;;;;;;;;;;;;;;;;5035826;28;19917;-76
2022/11/17 15:09:38;;;;;;;;;;;;;;;;;;5028759;28;19963;-76
2022/11/17 15:12:03;;;;;;;;;;;;;;;;;;5032627;28;20494;-76
2022/11/17 15:14:29;;;;;;;;;;;;;;;;;;5032950;28;19969;-76
2022/11/17 15:16:54;;;;;;;;;;;;;;;;;;5033015;28;20035;-76
2022/11/17 15:19:20;;;;;;;;;;;;;;;;;;5033959;28;19917;-76
2022/11/17 15:21:45;;;;;;;;;;;;;;;;;;5032793;28;20004;-76
2022/11/17 15:24:10;;;;;;;;;;;;;;;;;;5033015;28;19947;-76
2022/11/17 15:26:36;;;;;;;;;;;;;;;;;;5031951;28;19932;-76
2022/11/17 15:29:01;;;;;;;;;;;;;;;;;;5032902;28;19921;-76
2022/11/17 15:31:26;;;;;;;;;;;;;;;;;;5032653;28;19924;-76
2022/11/17 15:33:51;;;;;;;;;;;;;;;;;;5032390;28;19918;-76
2022/11/17 15:36:17;;;;;;;;;;;;;;;;;;5037203;28;19927;-76
2022/11/17 15:38:43;;;;;;;;;;;;;;;;;;5035760;28;19917;-76
2022/11/17 15:41:12;;;;;;;;;;;;;;;;;;5036141;28;20379;-77
2022/11/17 15:43:38;;;;;;;;;;;;;;;;;;5030919;28;20022;-77
2022/11/17 15:46:05;;;;;;;;;;;;;;;;;;5032929;28;19917;-77
2022/11/17 15:48:31;;;;;;;;;;;;;;;;;;5034358;28;19917;-77
2022/11/17 15:50:57;;;;;;;;;;;;;;;;;;5033410;28;19979;-77
2022/11/17 15:53:22;;;;;;;;;;;;;;;;;;5032455;28;20383;-77
2022/11/17 15:55:47;;;;;;;;;;;;;;;;;;5047991;28;19925;-75
2022/11/17 15:58:13;;;;;;;;;;;;;;;;;;5034349;28;20418;-76
2022/11/17 16:00:39;;;;;;;;;;;;;;;;;;5032153;28;19958;-77
2022/11/17 16:03:04;;;;;;;;;;;;;;;;;;5035891;28;20735;-77
2022/11/17 16:05:29;;;;;;;;;;;;;;;;;;5033343;28;19917;-76
2022/11/17 16:07:55;;;;;;;;;;;;;;;;;;5033903;28;19920;-77
2022/11/17 16:10:20;;;;;;;;;;;;;;;;;;5032126;28;19924;-75
2022/11/17 16:12:48;;;;;;;;;;;;;;;;;;5031854;28;19917;-76
2022/11/17 16:15:13;;;;;;;;;;;;;;;;;;5032180;28;20011;-76
2022/11/17 16:17:39;;;;;;;;;;;;;;;;;;5032531;28;19959;-76
2022/11/17 16:20:06;;;;;;;;;;;;;;;;;;5032227;28;19971;-76
2022/11/17 16:22:32;;;;;;;;;;;;;;;;;;5031664;28;20372;-75
2022/11/17 16:24:57;;;;;;;;;;;;;;;;;;5029742;28;19967;-76
2022/11/17 16:27:22;;;;;;;;;;;;;;;;;;5031771;28;19917;-75
2022/11/17 16:29:48;;;;;;;;;;;;;;;;;;5028277;28;20366;-76
2022/11/17 16:32:13;;;;;;;;;;;;;;;;;;5046846;28;19913;-75
2022/11/17 16:34:40;;;;;;;;;;;;;;;;;;5048067;28;19939;-76
2022/11/17 16:37:05;;;;;;;;;;;;;;;;;;5033421;28;19993;-76
2022/11/17 16:39:30;;;;;;;;;;;;;;;;;;5030396;28;19925;-76
2022/11/17 16:41:57;;;;;;;;;;;;;;;;;;5030570;28;20066;-76
2022/11/17 16:44:23;;;;;;;;;;;;;;;;;;5030013;28;20279;-75
2022/11/17 16:46:48;;;;;;;;;;;;;;;;;;5030597;28;19962;-76
2022/11/17 16:49:15;;;;;;;;;;;;;;;;;;5029535;28;19927;-76
2022/11/17 16:51:45;;;;;;;;;;;;;;;;;;5030339;28;19924;-75
2022/11/17 16:54:11;;;;;;;;;;;;;;;;;;5031260;28;19924;-75
2022/11/17 16:56:36;;;;;;;;;;;;;;;;;;5032639;28;19921;-75
2022/11/17 16:59:02;;;;;;;;;;;;;;;;;;5031764;28;20383;-75
2022/11/17 17:01:31;;;;;;;;;;;;;;;;;;5031423;28;19923;-75
2022/11/17 17:04:00;;;;;;;;;;;;;;;;;;5034130;28;19970;-77
2022/11/17 17:06:30;;;;;;;;;;;;;;;;;;5033287;28;19999;-76
2022/11/17 17:09:02;;;;;;;;;;;;;;;;;;5039470;28;19984;-75
2022/11/17 17:11:30;;;;;;;;;;;;;;;;;;5040172;28;19933;-77
2022/11/17 17:13:55;;;;;;;;;;;;;;;;;;5031597;28;19917;-77
2022/11/17 17:16:24;;;;;;;;;;;;;;;;;;5029758;28;19996;-77
2022/11/17 17:18:58;;;;;;;;;;;;;;;;;;5025434;28;19921;-76
2022/11/17 17:21:23;;;;;;;;;;;;;;;;;;5029138;28;20264;-76
2022/11/17 17:23:49;;;;;;;;;;;;;;;;;;5033102;28;19920;-76
2022/11/17 17:26:17;;;;;;;;;;;;;;;;;;5046897;28;19924;-76
2022/11/17 17:28:43;;;;;;;;;;;;;;;;;;5031601;28;19947;-75